createdAt,value
2022-09-15T00:00:19.405Z,5.07
2022-09-15T00:00:42.399Z,4.72
2022-09-15T00:01:05.325Z,5.03
2022-09-15T00:01:28.179Z,5.22
2022-09-15T00:01:51.105Z,5.28
2022-09-15T00:02:14.361Z,5.30
2022-09-15T00:02:37.357Z,4.93
2022-09-15T00:03:00.909Z,5.00
2022-09-15T00:03:26.209Z,5.43
2022-09-15T00:03:48.949Z,5.05
2022-09-15T00:04:14.616Z,5.22
2022-09-15T00:04:37.450Z,5.68
2022-09-15T00:05:00.977Z,5.07
2022-09-15T00:05:23.728Z,5.00
2022-09-15T00:05:46.763Z,5.30
2022-09-15T00:06:09.703Z,5.00
2022-09-15T00:06:32.488Z,5.18
2022-09-15T00:06:55.205Z,4.97
2022-09-15T00:07:18.012Z,4.40
2022-09-15T00:07:40.664Z,5.00
2022-09-15T00:08:03.311Z,5.10
2022-09-15T00:08:28.462Z,5.30
2022-09-15T00:08:51.110Z,4.97
2022-09-15T00:09:13.768Z,5.10
2022-09-15T00:09:36.759Z,4.97
2022-09-15T00:09:59.464Z,5.25
2022-09-15T00:10:22.199Z,5.57
2022-09-15T00:10:48.499Z,5.45
2022-09-15T00:11:12.729Z,5.38
2022-09-15T00:11:36.305Z,5.10
2022-09-15T00:11:58.932Z,4.90
2022-09-15T00:12:23.860Z,5.18
2022-09-15T00:12:46.570Z,5.07
2022-09-15T00:13:09.289Z,4.63
2022-09-15T00:13:32.105Z,5.03
2022-09-15T00:13:55.041Z,5.38
2022-09-15T00:14:19.290Z,4.97
2022-09-15T00:14:41.920Z,5.40
2022-09-15T00:15:05.909Z,4.82
2022-09-15T00:15:29.130Z,4.55
2022-09-15T00:15:51.868Z,4.70
2022-09-15T00:16:15.604Z,4.67
2022-09-15T00:16:38.721Z,4.75
2022-09-15T00:17:01.610Z,5.05
2022-09-15T00:17:24.601Z,4.80
2022-09-15T00:17:49.935Z,5.18
2022-09-15T00:18:12.623Z,5.60
2022-09-15T00:18:35.522Z,4.80
2022-09-15T00:19:00.438Z,4.78
2022-09-15T00:19:23.203Z,5.07
2022-09-15T00:19:45.838Z,5.20
2022-09-15T00:20:09.434Z,5.10
2022-09-15T00:20:32.274Z,4.88
2022-09-15T00:20:54.973Z,4.68
2022-09-15T00:21:19.423Z,4.90
2022-09-15T00:21:42.789Z,5.10
2022-09-15T00:22:05.599Z,4.90
2022-09-15T00:22:28.894Z,4.75
2022-09-15T00:22:51.619Z,4.80
2022-09-15T00:23:15.179Z,4.95
2022-09-15T00:23:38.350Z,4.85
2022-09-15T00:24:01.740Z,5.18
2022-09-15T00:24:24.479Z,5.15
2022-09-15T00:24:50.659Z,4.65
2022-09-15T00:25:13.419Z,5.07
2022-09-15T00:25:41.014Z,5.07
2022-09-15T00:26:06.724Z,5.40
2022-09-15T00:26:30.500Z,4.82
2022-09-15T00:26:53.249Z,5.25
2022-09-15T00:27:16.004Z,4.93
2022-09-15T00:27:38.757Z,5.00
2022-09-15T00:28:01.600Z,5.30
2022-09-15T00:28:26.720Z,5.03
2022-09-15T00:28:49.454Z,5.43
2022-09-15T00:29:12.159Z,5.40
2022-09-15T00:29:36.486Z,5.40
2022-09-15T00:29:59.199Z,5.43
2022-09-15T00:30:21.899Z,5.75
2022-09-15T00:30:45.917Z,5.45
2022-09-15T00:31:09.528Z,5.45
2022-09-15T00:31:32.604Z,5.55
2022-09-15T00:31:55.360Z,5.30
2022-09-15T00:32:18.080Z,5.47
2022-09-15T00:32:43.779Z,5.65
2022-09-15T00:33:06.568Z,5.47
2022-09-15T00:33:29.213Z,5.03
2022-09-15T00:33:53.277Z,5.13
2022-09-15T00:34:16.478Z,5.15
2022-09-15T00:34:39.193Z,5.25
2022-09-15T00:35:01.839Z,5.28
2022-09-15T00:35:24.689Z,5.35
2022-09-15T00:35:49.456Z,5.10
2022-09-15T00:36:12.499Z,5.22
2022-09-15T00:36:35.304Z,5.20
2022-09-15T00:36:58.058Z,4.80
2022-09-15T00:37:20.773Z,5.00
2022-09-15T00:37:46.254Z,5.10
2022-09-15T00:38:11.043Z,4.70
2022-09-15T00:38:34.397Z,5.18
2022-09-15T00:38:57.494Z,5.15
2022-09-15T00:39:20.792Z,5.00
2022-09-15T00:39:43.726Z,5.45
2022-09-15T00:40:07.443Z,5.22
2022-09-15T00:40:30.302Z,4.43
2022-09-15T00:40:57.284Z,4.63
2022-09-15T00:41:22.556Z,4.60
2022-09-15T00:41:45.226Z,4.50
2022-09-15T00:42:12.251Z,4.55
2022-09-15T00:42:34.971Z,4.70
2022-09-15T00:42:57.754Z,4.63
2022-09-15T00:43:24.152Z,4.55
2022-09-15T00:43:51.841Z,4.63
2022-09-15T00:44:47.687Z,4.80
2022-09-15T00:45:14.610Z,4.82
2022-09-15T00:45:37.354Z,4.90
2022-09-15T00:46:00.165Z,5.10
2022-09-15T00:46:24.330Z,4.88
2022-09-15T00:46:58.876Z,4.72
2022-09-15T00:47:34.444Z,4.57
2022-09-15T00:47:57.253Z,4.10
2022-09-15T00:48:21.797Z,3.75
2022-09-15T00:48:45.965Z,3.90
2022-09-15T00:49:11.456Z,3.90
2022-09-15T00:49:35.142Z,4.05
2022-09-15T00:50:01.291Z,3.72
2022-09-15T00:50:25.677Z,3.97
2022-09-15T00:50:51.537Z,3.70
2022-09-15T00:51:16.933Z,3.70
2022-09-15T00:51:46.926Z,3.78
2022-09-15T00:52:12.177Z,3.42
2022-09-15T00:52:36.956Z,3.38
2022-09-15T00:53:02.124Z,3.45
2022-09-15T00:53:25.075Z,3.40
2022-09-15T00:53:47.751Z,2.72
2022-09-15T00:54:14.751Z,2.67
2022-09-15T00:54:42.741Z,2.60
2022-09-15T00:55:08.669Z,3.00
2022-09-15T00:55:32.503Z,3.35
2022-09-15T00:55:55.260Z,2.67
2022-09-15T00:56:18.016Z,2.92
2022-09-15T00:56:43.126Z,2.80
2022-09-15T00:57:07.576Z,2.70
2022-09-15T00:57:32.529Z,2.60
2022-09-15T00:57:58.148Z,2.65
2022-09-15T00:58:24.346Z,2.80
2022-09-15T00:58:49.651Z,2.80
2022-09-15T00:59:14.402Z,3.17
2022-09-15T00:59:38.618Z,2.78
2022-09-15T01:00:04.817Z,2.90
2022-09-15T01:00:28.256Z,3.13
2022-09-15T01:00:52.994Z,3.25
2022-09-15T01:01:15.840Z,3.38
2022-09-15T01:01:42.049Z,3.53
2022-09-15T01:02:08.538Z,3.25
2022-09-15T01:02:33.156Z,2.97
2022-09-15T01:02:56.052Z,3.30
2022-09-15T01:03:18.891Z,2.80
2022-09-15T01:03:41.580Z,3.00
2022-09-15T01:04:04.341Z,3.22
2022-09-15T01:04:27.126Z,3.08
2022-09-15T01:04:49.899Z,3.05
2022-09-15T01:05:15.517Z,3.10
2022-09-15T01:05:43.467Z,2.92
2022-09-15T01:06:15.772Z,2.95
2022-09-15T01:06:41.296Z,2.80
2022-09-15T01:07:05.294Z,2.55
2022-09-15T01:07:30.463Z,2.85
2022-09-15T01:07:55.372Z,2.95
2022-09-15T01:08:19.577Z,2.70
2022-09-15T01:08:46.092Z,3.00
2022-09-15T01:09:11.167Z,2.70
2022-09-15T01:09:35.691Z,3.28
2022-09-15T01:09:59.690Z,3.55
2022-09-15T01:10:24.958Z,3.20
2022-09-15T01:10:47.782Z,3.30
2022-09-15T01:11:11.020Z,3.58
2022-09-15T01:11:33.736Z,3.40
2022-09-15T01:11:56.406Z,3.58
2022-09-15T01:12:19.174Z,3.60
2022-09-15T01:12:41.817Z,4.00
2022-09-15T01:13:05.793Z,3.72
2022-09-15T01:13:30.118Z,3.60
2022-09-15T01:13:52.845Z,3.40
2022-09-15T01:14:17.376Z,3.45
2022-09-15T01:14:40.211Z,3.30
2022-09-15T01:15:05.007Z,3.15
2022-09-15T01:15:30.891Z,3.30
2022-09-15T01:15:59.696Z,3.53
2022-09-15T01:16:26.515Z,3.60
2022-09-15T01:16:53.724Z,3.63
2022-09-15T01:17:21.891Z,3.15
2022-09-15T01:17:53.153Z,3.40
2022-09-15T01:18:18.726Z,3.13
2022-09-15T01:18:46.465Z,3.03
2022-09-15T01:19:22.529Z,3.13
2022-09-15T01:20:17.328Z,3.13
2022-09-15T01:21:06.230Z,2.83
2022-09-15T01:21:34.710Z,3.00
2022-09-15T01:22:00.006Z,2.63
2022-09-15T01:22:38.146Z,2.75
2022-09-15T01:23:12.640Z,3.13
2022-09-15T01:24:14.759Z,2.92
2022-09-15T01:24:46.219Z,3.00
2022-09-15T01:25:10.161Z,3.00
2022-09-15T01:25:49.428Z,2.80
2022-09-15T01:26:42.548Z,2.80
2022-09-15T01:27:37.629Z,3.22
2022-09-15T01:28:26.123Z,3.17
2022-09-15T01:29:21.754Z,3.10
2022-09-15T01:30:05.749Z,3.10
2022-09-15T01:30:28.504Z,3.30
2022-09-15T01:30:51.869Z,3.17
2022-09-15T01:31:16.288Z,3.25
2022-09-15T01:32:00.335Z,3.28
2022-09-15T01:32:43.829Z,3.00
2022-09-15T01:33:12.669Z,3.15
2022-09-15T01:33:37.990Z,2.95
2022-09-15T01:34:05.302Z,3.13
2022-09-15T01:34:27.986Z,3.25
2022-09-15T01:34:56.205Z,3.13
2022-09-15T01:35:27.905Z,3.38
2022-09-15T01:35:57.179Z,3.70
2022-09-15T01:36:21.798Z,3.65
2022-09-15T01:36:47.360Z,3.72
2022-09-15T01:37:12.046Z,3.92
2022-09-15T01:37:37.949Z,3.45
2022-09-15T01:38:04.543Z,3.95
2022-09-15T01:38:44.705Z,3.63
2022-09-15T01:39:10.768Z,4.15
2022-09-15T01:39:35.475Z,3.90
2022-09-15T01:39:58.534Z,3.70
2022-09-15T01:40:21.357Z,3.60
2022-09-15T01:40:47.185Z,3.90
2022-09-15T01:41:14.253Z,4.07
2022-09-15T01:41:43.243Z,4.05
2022-09-15T01:42:08.353Z,3.88
2022-09-15T01:42:31.124Z,4.10
2022-09-15T01:42:53.914Z,4.22
2022-09-15T01:43:17.052Z,4.20
2022-09-15T01:43:41.826Z,3.83
2022-09-15T01:44:05.863Z,4.10
2022-09-15T01:44:31.293Z,4.07
2022-09-15T01:44:55.956Z,3.60
2022-09-15T01:45:20.010Z,3.95
2022-09-15T01:45:42.994Z,4.00
2022-09-15T01:46:06.007Z,4.20
2022-09-15T01:46:32.054Z,4.40
2022-09-15T01:46:56.577Z,4.35
2022-09-15T01:47:19.582Z,4.68
2022-09-15T01:47:42.281Z,4.60
2022-09-15T01:48:05.601Z,4.38
2022-09-15T01:48:28.319Z,4.55
2022-09-15T01:48:51.033Z,4.55
2022-09-15T01:49:17.931Z,4.50
2022-09-15T01:49:42.783Z,4.65
2022-09-15T01:50:08.477Z,4.57
2022-09-15T01:50:33.456Z,4.60
2022-09-15T01:50:59.481Z,4.72
2022-09-15T01:51:22.232Z,4.43
2022-09-15T01:51:44.951Z,4.30
2022-09-15T01:52:10.107Z,4.30
2022-09-15T01:52:33.512Z,4.38
2022-09-15T01:53:00.000Z,3.97
2022-09-15T01:53:22.951Z,4.20
2022-09-15T01:53:45.973Z,3.90
2022-09-15T01:54:08.697Z,4.20
2022-09-15T01:54:33.572Z,4.38
2022-09-15T01:54:57.343Z,4.13
2022-09-15T01:55:23.093Z,4.30
2022-09-15T01:55:49.431Z,4.40
2022-09-15T01:56:12.766Z,4.00
2022-09-15T01:56:37.162Z,4.22
2022-09-15T01:57:00.337Z,4.20
2022-09-15T01:57:23.065Z,4.18
2022-09-15T01:57:45.766Z,4.57
2022-09-15T01:58:08.480Z,4.50
2022-09-15T01:58:31.567Z,4.25
2022-09-15T01:58:54.322Z,4.22
2022-09-15T01:59:16.961Z,4.40
2022-09-15T01:59:41.201Z,4.70
2022-09-15T02:00:05.361Z,4.70
2022-09-15T02:00:29.320Z,4.40
2022-09-15T02:00:56.130Z,4.20
2022-09-15T02:01:21.682Z,4.28
2022-09-15T02:01:49.751Z,4.70
2022-09-15T02:02:14.417Z,4.13
2022-09-15T02:02:38.481Z,3.80
2022-09-15T02:03:04.248Z,4.20
2022-09-15T02:03:33.431Z,4.15
2022-09-15T02:03:58.696Z,4.65
2022-09-15T02:04:23.431Z,4.43
2022-09-15T02:04:48.346Z,4.75
2022-09-15T02:05:14.492Z,4.70
2022-09-15T02:05:40.328Z,4.30
2022-09-15T02:06:05.511Z,4.13
2022-09-15T02:06:37.931Z,4.38
2022-09-15T02:07:04.158Z,4.50
2022-09-15T02:07:32.011Z,4.05
2022-09-15T02:07:57.221Z,3.78
2022-09-15T02:08:25.526Z,3.65
2022-09-15T02:08:52.544Z,4.03
2022-09-15T02:09:21.139Z,3.88
2022-09-15T02:09:48.027Z,4.40
2022-09-15T02:10:12.350Z,5.05
2022-09-15T02:10:37.462Z,4.78
2022-09-15T02:11:07.041Z,5.20
2022-09-15T02:11:30.506Z,5.00
2022-09-15T02:11:58.383Z,4.80
2022-09-15T02:12:24.317Z,4.80
2022-09-15T02:12:50.851Z,5.10
2022-09-15T02:13:17.311Z,5.20
2022-09-15T02:13:46.125Z,5.28
2022-09-15T02:14:12.563Z,5.60
2022-09-15T02:14:43.532Z,5.18
2022-09-15T02:15:08.866Z,5.20
2022-09-15T02:15:36.092Z,5.70
2022-09-15T02:16:00.179Z,5.25
2022-09-15T02:16:23.826Z,5.57
2022-09-15T02:16:48.790Z,5.50
2022-09-15T02:17:12.937Z,5.00
2022-09-15T02:17:39.071Z,5.55
2022-09-15T02:18:02.550Z,5.60
2022-09-15T02:18:30.566Z,5.53
2022-09-15T02:19:16.052Z,5.30
2022-09-15T02:19:41.787Z,4.85
2022-09-15T02:20:08.869Z,4.90
2022-09-15T02:20:34.472Z,4.68
2022-09-15T02:21:00.872Z,4.95
2022-09-15T02:21:30.120Z,5.03
2022-09-15T02:21:57.674Z,4.78
2022-09-15T02:22:24.367Z,4.63
2022-09-15T02:22:48.319Z,5.20
2022-09-15T02:23:16.371Z,4.55
2022-09-15T02:23:41.284Z,4.50
2022-09-15T02:24:08.012Z,4.72
2022-09-15T02:24:32.807Z,4.60
2022-09-15T02:24:58.418Z,4.70
2022-09-15T02:25:24.673Z,4.38
2022-09-15T02:25:51.757Z,4.80
2022-09-15T02:26:17.499Z,4.53
2022-09-15T02:26:40.512Z,4.70
2022-09-15T02:27:03.469Z,4.57
2022-09-15T02:27:30.435Z,4.38
2022-09-15T02:27:54.995Z,4.43
2022-09-15T02:28:18.562Z,4.10
2022-09-15T02:28:41.601Z,4.70
2022-09-15T02:29:06.591Z,4.32
2022-09-15T02:29:29.369Z,4.57
2022-09-15T02:29:55.531Z,4.53
2022-09-15T02:30:19.993Z,4.50
2022-09-15T02:30:43.151Z,4.25
2022-09-15T02:31:06.945Z,4.40
2022-09-15T02:31:29.729Z,4.50
2022-09-15T02:31:52.697Z,4.50
2022-09-15T02:32:15.757Z,4.18
2022-09-15T02:32:42.760Z,4.38
2022-09-15T02:33:06.931Z,4.22
2022-09-15T02:33:33.301Z,4.40
2022-09-15T02:33:59.218Z,4.38
2022-09-15T02:34:23.692Z,4.40
2022-09-15T02:34:48.169Z,4.20
2022-09-15T02:35:10.952Z,4.32
2022-09-15T02:35:35.207Z,4.55
2022-09-15T02:35:57.917Z,4.82
2022-09-15T02:36:21.050Z,4.97
2022-09-15T02:36:44.301Z,4.75
2022-09-15T02:37:07.059Z,4.00
2022-09-15T02:37:29.762Z,4.50
2022-09-15T02:37:52.485Z,4.60
2022-09-15T02:38:15.244Z,4.30
2022-09-15T02:38:41.316Z,4.60
2022-09-15T02:39:05.849Z,4.45
2022-09-15T02:39:29.842Z,4.43
2022-09-15T02:39:55.785Z,4.40
2022-09-15T02:40:18.734Z,4.30
2022-09-15T02:40:43.289Z,4.20
2022-09-15T02:41:06.418Z,4.60
2022-09-15T02:41:29.198Z,4.65
2022-09-15T02:41:51.866Z,4.13
2022-09-15T02:42:22.109Z,4.43
2022-09-15T02:42:52.740Z,4.43
2022-09-15T02:43:17.576Z,4.30
2022-09-15T02:43:45.501Z,4.57
2022-09-15T02:44:08.810Z,4.55
2022-09-15T02:44:31.803Z,4.60
2022-09-15T02:44:55.925Z,4.80
2022-09-15T02:45:20.310Z,5.13
2022-09-15T02:45:43.326Z,4.90
2022-09-15T02:46:06.433Z,4.57
2022-09-15T02:46:29.224Z,4.63
2022-09-15T02:46:52.649Z,4.90
2022-09-15T02:47:15.384Z,5.03
2022-09-15T02:47:38.181Z,4.60
2022-09-15T02:48:00.967Z,4.65
2022-09-15T02:48:25.454Z,4.70
2022-09-15T02:48:48.167Z,4.72
2022-09-15T02:49:10.943Z,4.45
2022-09-15T02:49:33.655Z,4.22
2022-09-15T02:49:57.288Z,4.43
2022-09-15T02:50:20.655Z,4.43
2022-09-15T02:50:43.576Z,4.10
2022-09-15T02:51:06.469Z,4.32
2022-09-15T02:51:31.133Z,4.68
2022-09-15T02:51:53.814Z,4.60
2022-09-15T02:52:16.470Z,4.15
2022-09-15T02:52:41.566Z,4.60
2022-09-15T02:53:04.577Z,4.20
2022-09-15T02:53:27.254Z,4.90
2022-09-15T02:53:50.004Z,5.00
2022-09-15T02:54:12.770Z,4.90
2022-09-15T02:54:36.467Z,4.90
2022-09-15T02:54:59.394Z,4.90
2022-09-15T02:55:22.105Z,4.87
2022-09-15T02:55:44.800Z,4.60
2022-09-15T02:56:07.840Z,4.75
2022-09-15T02:56:30.604Z,5.15
2022-09-15T02:56:53.757Z,5.18
2022-09-15T02:57:16.639Z,5.03
2022-09-15T02:57:39.435Z,5.20
2022-09-15T02:58:02.176Z,4.93
2022-09-15T02:58:24.970Z,4.85
2022-09-15T02:58:47.659Z,5.10
2022-09-15T02:59:10.327Z,5.32
2022-09-15T02:59:52.979Z,5.55
2022-09-15T03:00:19.169Z,5.20
2022-09-15T03:00:42.792Z,5.22
2022-09-15T03:01:06.380Z,5.30
2022-09-15T03:01:32.360Z,5.22
2022-09-15T03:01:55.786Z,5.38
2022-09-15T03:02:20.781Z,5.47
2022-09-15T03:02:45.635Z,5.00
2022-09-15T03:03:09.494Z,5.10
2022-09-15T03:03:32.350Z,5.43
2022-09-15T03:03:55.031Z,5.82
2022-09-15T03:04:17.751Z,5.50
2022-09-15T03:04:40.490Z,5.20
2022-09-15T03:05:03.394Z,5.00
2022-09-15T03:05:26.850Z,4.63
2022-09-15T03:05:49.769Z,4.70
2022-09-15T03:06:20.060Z,5.05
2022-09-15T03:06:43.704Z,4.55
2022-09-15T03:07:08.650Z,4.60
2022-09-15T03:07:32.040Z,4.57
2022-09-15T03:07:54.754Z,4.80
2022-09-15T03:08:17.465Z,4.97
2022-09-15T03:08:40.164Z,4.47
2022-09-15T03:09:05.224Z,4.57
2022-09-15T03:09:27.967Z,4.25
2022-09-15T03:09:50.914Z,4.45
2022-09-15T03:10:13.721Z,4.72
2022-09-15T03:10:36.379Z,4.72
2022-09-15T03:10:59.051Z,4.70
2022-09-15T03:11:23.849Z,4.93
2022-09-15T03:11:46.614Z,4.43
2022-09-15T03:12:09.795Z,4.47
2022-09-15T03:12:32.479Z,4.55
2022-09-15T03:12:55.248Z,4.47
2022-09-15T03:13:18.579Z,4.65
2022-09-15T03:13:41.283Z,4.57
2022-09-15T03:14:05.972Z,4.18
2022-09-15T03:14:29.639Z,4.45
2022-09-15T03:14:52.324Z,4.88
2022-09-15T03:15:17.975Z,4.80
2022-09-15T03:15:40.640Z,4.80
2022-09-15T03:16:09.979Z,4.72
2022-09-15T03:16:34.816Z,4.78
2022-09-15T03:16:58.492Z,4.65
2022-09-15T03:17:21.180Z,4.65
2022-09-15T03:17:44.824Z,4.57
2022-09-15T03:18:07.514Z,4.38
2022-09-15T03:18:30.209Z,4.40
2022-09-15T03:18:54.609Z,4.78
2022-09-15T03:19:17.374Z,4.38
2022-09-15T03:19:40.148Z,4.70
2022-09-15T03:20:03.341Z,4.38
2022-09-15T03:20:30.467Z,4.43
2022-09-15T03:20:56.757Z,4.53
2022-09-15T03:21:19.649Z,4.53
2022-09-15T03:21:42.319Z,4.78
2022-09-15T03:22:05.215Z,4.88
2022-09-15T03:22:28.324Z,4.82
2022-09-15T03:22:51.109Z,4.93
2022-09-15T03:23:14.089Z,4.80
2022-09-15T03:23:36.670Z,4.63
2022-09-15T03:23:59.565Z,4.30
2022-09-15T03:24:23.254Z,4.32
2022-09-15T03:24:45.933Z,4.40
2022-09-15T03:25:09.820Z,4.70
2022-09-15T03:25:35.200Z,5.00
2022-09-15T03:25:59.509Z,4.07
2022-09-15T03:26:22.243Z,4.70
2022-09-15T03:26:44.943Z,4.85
2022-09-15T03:27:07.803Z,4.38
2022-09-15T03:27:30.410Z,4.32
2022-09-15T03:27:53.323Z,4.90
2022-09-15T03:28:15.989Z,4.68
2022-09-15T03:28:39.192Z,4.70
2022-09-15T03:29:01.956Z,4.80
2022-09-15T03:29:27.884Z,5.10
2022-09-15T03:29:50.608Z,4.75
2022-09-15T03:30:13.938Z,4.43
2022-09-15T03:30:38.047Z,4.85
2022-09-15T03:31:00.727Z,5.10
2022-09-15T03:31:23.595Z,4.88
2022-09-15T03:31:46.454Z,4.30
2022-09-15T03:32:09.271Z,4.40
2022-09-15T03:32:32.035Z,4.60
2022-09-15T03:32:54.842Z,4.32
2022-09-15T03:33:17.590Z,4.60
2022-09-15T03:33:40.482Z,4.63
2022-09-15T03:34:05.597Z,4.63
2022-09-15T03:34:28.333Z,4.60
2022-09-15T03:34:53.231Z,4.78
2022-09-15T03:35:18.092Z,4.95
2022-09-15T03:35:40.763Z,4.60
2022-09-15T03:36:04.017Z,4.97
2022-09-15T03:36:26.731Z,4.85
2022-09-15T03:36:49.416Z,4.88
2022-09-15T03:37:14.629Z,4.63
2022-09-15T03:37:37.411Z,4.68
2022-09-15T03:38:00.215Z,4.78
2022-09-15T03:38:25.284Z,4.70
2022-09-15T03:38:48.215Z,4.43
2022-09-15T03:39:11.820Z,4.45
2022-09-15T03:39:34.545Z,4.80
2022-09-15T03:39:57.373Z,4.63
2022-09-15T03:40:22.922Z,4.95
2022-09-15T03:40:55.836Z,4.75
2022-09-15T03:41:19.282Z,4.90
2022-09-15T03:41:41.930Z,4.72
2022-09-15T03:42:04.860Z,5.07
2022-09-15T03:42:27.647Z,4.80
2022-09-15T03:42:50.266Z,5.03
2022-09-15T03:43:18.010Z,4.95
2022-09-15T03:43:41.691Z,4.65
2022-09-15T03:44:04.407Z,5.18
2022-09-15T03:44:27.142Z,4.90
2022-09-15T03:44:49.994Z,4.80
2022-09-15T03:45:12.740Z,4.68
2022-09-15T03:45:35.464Z,5.15
2022-09-15T03:45:59.799Z,5.00
2022-09-15T03:46:22.554Z,4.70
2022-09-15T03:46:48.549Z,4.57
2022-09-15T03:47:11.299Z,4.80
2022-09-15T03:47:34.059Z,4.97
2022-09-15T03:47:57.769Z,4.50
2022-09-15T03:48:22.667Z,4.57
2022-09-15T03:48:45.771Z,4.80
2022-09-15T03:49:11.064Z,4.43
2022-09-15T03:49:34.009Z,4.95
2022-09-15T03:49:56.664Z,5.25
2022-09-15T03:50:19.704Z,4.80
2022-09-15T03:50:42.534Z,4.67
2022-09-15T03:51:05.889Z,4.63
2022-09-15T03:51:28.724Z,4.68
2022-09-15T03:51:51.532Z,4.72
2022-09-15T03:52:14.269Z,4.90
2022-09-15T03:52:36.985Z,5.05
2022-09-15T03:53:00.701Z,4.72
2022-09-15T03:53:23.479Z,4.82
2022-09-15T03:53:46.249Z,4.90
2022-09-15T03:54:09.089Z,4.90
2022-09-15T03:54:31.934Z,4.70
2022-09-15T03:54:55.774Z,4.70
2022-09-15T03:55:18.564Z,4.80
2022-09-15T03:55:41.285Z,4.60
2022-09-15T03:56:11.386Z,4.72
2022-09-15T03:56:34.207Z,4.85
2022-09-15T03:56:56.870Z,4.68
2022-09-15T03:57:19.587Z,4.80
2022-09-15T03:57:42.549Z,4.82
2022-09-15T03:58:05.349Z,5.00
2022-09-15T03:58:30.808Z,4.70
2022-09-15T03:58:53.846Z,4.75
2022-09-15T03:59:18.921Z,5.00
2022-09-15T03:59:41.685Z,4.78
2022-09-15T04:00:06.253Z,4.80
2022-09-15T04:00:29.521Z,5.00
2022-09-15T04:00:52.716Z,4.70
2022-09-15T04:01:19.029Z,4.65
2022-09-15T04:01:41.943Z,5.05
2022-09-15T04:02:04.911Z,4.82
2022-09-15T04:02:27.741Z,4.82
2022-09-15T04:02:50.779Z,4.90
2022-09-15T04:03:13.490Z,4.80
2022-09-15T04:03:44.129Z,4.70
2022-09-15T04:04:09.275Z,4.90
2022-09-15T04:04:31.931Z,4.88
2022-09-15T04:04:54.565Z,4.50
2022-09-15T04:05:17.430Z,4.93
2022-09-15T04:05:40.404Z,5.03
2022-09-15T04:06:03.665Z,4.80
2022-09-15T04:06:26.609Z,4.80
2022-09-15T04:06:50.329Z,4.55
2022-09-15T04:07:13.450Z,4.50
2022-09-15T04:07:36.470Z,4.72
2022-09-15T04:07:59.439Z,4.80
2022-09-15T04:08:25.424Z,4.70
2022-09-15T04:08:48.163Z,4.82
2022-09-15T04:09:10.984Z,4.50
2022-09-15T04:09:33.879Z,4.60
2022-09-15T04:09:56.954Z,4.80
2022-09-15T04:10:19.683Z,5.00
2022-09-15T04:10:42.389Z,4.90
2022-09-15T04:11:06.084Z,4.60
2022-09-15T04:11:29.049Z,4.55
2022-09-15T04:11:51.773Z,4.80
2022-09-15T04:12:14.464Z,4.68
2022-09-15T04:12:37.171Z,4.82
2022-09-15T04:12:59.972Z,4.70
2022-09-15T04:13:27.979Z,4.70
2022-09-15T04:13:52.004Z,4.57
2022-09-15T04:14:14.639Z,4.72
2022-09-15T04:14:37.524Z,4.43
2022-09-15T04:15:00.399Z,4.50
2022-09-15T04:15:23.184Z,4.47
2022-09-15T04:15:45.914Z,4.82
2022-09-15T04:16:10.007Z,4.38
2022-09-15T04:16:34.436Z,4.60
2022-09-15T04:16:57.543Z,4.40
2022-09-15T04:17:20.185Z,4.32
2022-09-15T04:17:42.944Z,4.30
2022-09-15T04:18:05.594Z,4.20
2022-09-15T04:18:28.365Z,4.57
2022-09-15T04:18:51.239Z,4.43
2022-09-15T04:19:14.471Z,4.07
2022-09-15T04:19:37.139Z,4.18
2022-09-15T04:19:59.870Z,4.55
2022-09-15T04:20:23.529Z,4.18
2022-09-15T04:20:46.235Z,4.78
2022-09-15T04:21:10.815Z,4.18
2022-09-15T04:21:33.524Z,3.80
2022-09-15T04:21:56.375Z,3.90
2022-09-15T04:22:19.325Z,4.10
2022-09-15T04:22:42.080Z,4.10
2022-09-15T04:23:04.746Z,4.13
2022-09-15T04:23:27.457Z,4.07
2022-09-15T04:23:50.293Z,4.45
2022-09-15T04:24:13.622Z,4.30
2022-09-15T04:24:36.675Z,4.13
2022-09-15T04:24:59.385Z,4.00
2022-09-15T04:25:22.080Z,3.78
2022-09-15T04:25:44.848Z,4.00
2022-09-15T04:26:08.649Z,4.18
2022-09-15T04:26:32.437Z,4.40
2022-09-15T04:26:55.307Z,4.47
2022-09-15T04:27:18.055Z,4.57
2022-09-15T04:27:40.742Z,4.80
2022-09-15T04:28:03.437Z,4.63
2022-09-15T04:28:26.346Z,4.55
2022-09-15T04:28:51.831Z,4.65
2022-09-15T04:29:16.354Z,4.57
2022-09-15T04:29:40.040Z,4.50
2022-09-15T04:30:02.682Z,4.95
2022-09-15T04:30:25.536Z,5.15
2022-09-15T04:30:48.238Z,4.93
2022-09-15T04:31:11.709Z,4.82
2022-09-15T04:31:35.991Z,5.20
2022-09-15T04:31:58.694Z,4.65
2022-09-15T04:32:22.249Z,4.80
2022-09-15T04:32:45.071Z,4.70
2022-09-15T04:33:08.377Z,4.55
2022-09-15T04:33:31.015Z,4.78
2022-09-15T04:33:54.317Z,4.75
2022-09-15T04:34:17.117Z,4.93
2022-09-15T04:34:41.525Z,4.68
2022-09-15T04:35:04.971Z,4.38
2022-09-15T04:35:28.511Z,4.60
2022-09-15T04:35:57.727Z,4.55
2022-09-15T04:36:21.458Z,4.25
2022-09-15T04:36:44.983Z,4.28
2022-09-15T04:37:07.717Z,4.40
2022-09-15T04:37:30.761Z,4.38
2022-09-15T04:37:57.997Z,4.53
2022-09-15T04:38:20.750Z,4.63
2022-09-15T04:38:43.633Z,4.40
2022-09-15T04:39:06.741Z,4.20
2022-09-15T04:39:29.561Z,4.50
2022-09-15T04:39:52.376Z,4.40
2022-09-15T04:40:15.423Z,4.60
2022-09-15T04:40:38.342Z,4.50
2022-09-15T04:41:01.967Z,4.57
2022-09-15T04:41:24.726Z,4.65
2022-09-15T04:41:47.595Z,4.60
2022-09-15T04:42:10.400Z,4.30
2022-09-15T04:42:33.136Z,4.20
2022-09-15T04:42:55.897Z,4.80
2022-09-15T04:43:18.566Z,4.80
2022-09-15T04:43:41.300Z,4.60
2022-09-15T04:44:04.320Z,4.43
2022-09-15T04:44:27.101Z,4.70
2022-09-15T04:44:49.775Z,4.50
2022-09-15T04:45:12.796Z,4.68
2022-09-15T04:45:35.520Z,4.80
2022-09-15T04:45:58.317Z,4.70
2022-09-15T04:46:22.280Z,4.55
2022-09-15T04:46:46.622Z,4.68
2022-09-15T04:47:09.370Z,4.90
2022-09-15T04:47:32.257Z,4.70
2022-09-15T04:47:54.951Z,4.72
2022-09-15T04:48:17.705Z,4.50
2022-09-15T04:48:40.480Z,4.80
2022-09-15T04:49:05.770Z,4.82
2022-09-15T04:49:29.130Z,4.68
2022-09-15T04:49:51.845Z,4.90
2022-09-15T04:50:14.795Z,4.90
2022-09-15T04:50:37.496Z,4.43
2022-09-15T04:51:02.879Z,4.65
2022-09-15T04:51:25.657Z,4.80
2022-09-15T04:51:48.555Z,4.60
2022-09-15T04:52:11.300Z,4.57
2022-09-15T04:52:34.060Z,4.80
2022-09-15T04:52:56.858Z,4.88
2022-09-15T04:53:19.812Z,5.10
2022-09-15T04:53:42.667Z,5.35
2022-09-15T04:54:05.847Z,4.90
2022-09-15T04:54:28.578Z,4.75
2022-09-15T04:54:51.257Z,5.00
2022-09-15T04:55:14.108Z,4.78
2022-09-15T04:55:36.783Z,5.10
2022-09-15T04:56:03.525Z,5.28
2022-09-15T04:56:26.371Z,5.35
2022-09-15T04:56:49.459Z,4.90
2022-09-15T04:57:12.382Z,5.15
2022-09-15T04:57:35.145Z,5.28
2022-09-15T04:58:02.164Z,5.70
2022-09-15T04:58:24.819Z,5.20
2022-09-15T04:58:48.661Z,5.22
2022-09-15T04:59:14.035Z,5.22
2022-09-15T04:59:36.844Z,5.10
2022-09-15T04:59:59.610Z,5.20
2022-09-15T05:00:22.339Z,5.18
2022-09-15T05:00:45.830Z,5.07
2022-09-15T05:01:09.901Z,5.15
2022-09-15T05:01:34.231Z,5.15
2022-09-15T05:01:59.009Z,4.90
2022-09-15T05:02:21.843Z,4.97
2022-09-15T05:02:45.802Z,4.95
2022-09-15T05:03:08.615Z,5.15
2022-09-15T05:03:31.354Z,5.32
2022-09-15T05:03:54.721Z,5.30
2022-09-15T05:04:17.446Z,5.07
2022-09-15T05:04:40.249Z,5.10
2022-09-15T05:05:02.918Z,5.00
2022-09-15T05:05:25.990Z,5.00
2022-09-15T05:05:49.434Z,4.63
2022-09-15T05:06:13.504Z,4.82
2022-09-15T05:06:36.269Z,4.70
2022-09-15T05:06:59.001Z,4.88
2022-09-15T05:07:21.704Z,4.60
2022-09-15T05:07:44.460Z,4.90
2022-09-15T05:08:08.186Z,4.78
2022-09-15T05:08:30.914Z,4.72
2022-09-15T05:08:55.523Z,4.75
2022-09-15T05:09:18.241Z,4.07
2022-09-15T05:09:40.960Z,4.30
2022-09-15T05:10:04.011Z,4.50
2022-09-15T05:10:26.688Z,4.45
2022-09-15T05:10:51.875Z,4.50
2022-09-15T05:11:14.812Z,4.47
2022-09-15T05:11:37.654Z,4.53
2022-09-15T05:12:00.450Z,4.72
2022-09-15T05:12:24.190Z,5.10
2022-09-15T05:12:46.889Z,4.88
2022-09-15T05:13:09.625Z,4.70
2022-09-15T05:13:32.377Z,4.68
2022-09-15T05:13:56.639Z,5.03
2022-09-15T05:14:19.523Z,4.72
2022-09-15T05:14:42.294Z,4.45
2022-09-15T05:15:06.164Z,4.70
2022-09-15T05:15:28.836Z,4.65
2022-09-15T05:15:51.611Z,4.55
2022-09-15T05:16:15.526Z,4.72
2022-09-15T05:16:38.352Z,4.60
2022-09-15T05:17:02.719Z,4.53
2022-09-15T05:17:26.832Z,4.70
2022-09-15T05:17:49.934Z,4.50
2022-09-15T05:18:14.762Z,4.50
2022-09-15T05:18:37.516Z,4.82
2022-09-15T05:19:01.163Z,5.03
2022-09-15T05:19:24.102Z,4.47
2022-09-15T05:19:46.741Z,4.57
2022-09-15T05:20:12.145Z,4.67
2022-09-15T05:20:34.878Z,4.88
2022-09-15T05:20:59.390Z,4.43
2022-09-15T05:21:22.632Z,4.85
2022-09-15T05:21:45.412Z,5.10
2022-09-15T05:22:08.161Z,4.90
2022-09-15T05:22:31.217Z,4.70
2022-09-15T05:22:53.912Z,5.10
2022-09-15T05:23:16.702Z,4.85
2022-09-15T05:23:39.636Z,4.67
2022-09-15T05:24:02.648Z,4.82
2022-09-15T05:24:25.581Z,5.22
2022-09-15T05:24:48.280Z,4.85
2022-09-15T05:25:10.911Z,4.97
2022-09-15T05:25:33.694Z,5.03
2022-09-15T05:25:56.714Z,4.95
2022-09-15T05:26:20.615Z,4.72